sensor_id;sensor_type;location;lat;lon;timestamp;P1;durP1;ratioP1;P2;durP2;ratioP2
19923;SDS011;10124;53.068;18.224;2023-02-04T10:53:39;9.30;;;4.93;;
19923;SDS011;10124;53.068;18.224;2023-02-04T10:56:26;10.82;;;6.25;;
19923;SDS011;10124;53.068;18.224;2023-02-04T10:59:02;16.02;;;8.48;;
19923;SDS011;10124;53.068;18.224;2023-02-04T11:01:30;7.67;;;4.30;;
19923;SDS011;10124;53.068;18.224;2023-02-04T11:03:58;12.20;;;5.17;;
19923;SDS011;10124;53.068;18.224;2023-02-04T11:06:26;10.97;;;6.03;;
19923;SDS011;10124;53.068;18.224;2023-02-04T11:08:55;13.17;;;6.23;;
19923;SDS011;10124;53.068;18.224;2023-02-04T11:11:25;10.83;;;4.80;;
19923;SDS011;10124;53.068;18.224;2023-02-04T11:16:30;7.63;;;4.17;;
19923;SDS011;10124;53.068;18.224;2023-02-04T11:18:59;24.00;;;10.93;;
19923;SDS011;10124;53.068;18.224;2023-02-04T11:26:44;15.20;;;6.90;;
19923;SDS011;10124;53.068;18.224;2023-02-04T11:39:24;16.53;;;8.53;;
19923;SDS011;10124;53.068;18.224;2023-02-04T11:41:53;17.87;;;9.63;;
19923;SDS011;10124;53.068;18.224;2023-02-04T11:44:21;16.17;;;8.07;;
19923;SDS011;10124;53.068;18.224;2023-02-04T11:46:51;15.63;;;8.83;;
19923;SDS011;10124;53.068;18.224;2023-02-04T11:49:22;12.70;;;7.40;;
19923;SDS011;10124;53.068;18.224;2023-02-04T11:52:02;14.23;;;6.67;;
19923;SDS011;10124;53.068;18.224;2023-02-04T11:54:38;8.50;;;6.00;;
19923;SDS011;10124;53.068;18.224;2023-02-04T11:57:08;13.97;;;8.27;;
19923;SDS011;10124;53.068;18.224;2023-02-04T11:59:38;10.87;;;6.27;;
19923;SDS011;10124;53.068;18.224;2023-02-04T12:02:13;13.40;;;6.37;;
19923;SDS011;10124;53.068;18.224;2023-02-04T12:05:11;10.60;;;4.53;;
19923;SDS011;10124;53.068;18.224;2023-02-04T12:07:42;7.67;;;3.67;;
19923;SDS011;10124;53.068;18.224;2023-02-04T12:10:11;13.20;;;7.43;;
19923;SDS011;10124;53.068;18.224;2023-02-04T12:12:43;16.37;;;7.97;;
19923;SDS011;10124;53.068;18.224;2023-02-04T12:15:19;18.73;;;7.90;;
19923;SDS011;10124;53.068;18.224;2023-02-04T12:18:06;17.43;;;9.20;;
19923;SDS011;10124;53.068;18.224;2023-02-04T12:20:35;8.50;;;4.97;;
19923;SDS011;10124;53.068;18.224;2023-02-04T12:23:03;22.73;;;10.87;;
19923;SDS011;10124;53.068;18.224;2023-02-04T12:25:31;14.43;;;6.63;;
19923;SDS011;10124;53.068;18.224;2023-02-04T12:28:00;32.67;;;17.73;;
19923;SDS011;10124;53.068;18.224;2023-02-04T12:30:28;19.43;;;8.40;;
19923;SDS011;10124;53.068;18.224;2023-02-04T12:32:56;9.73;;;5.83;;
19923;SDS011;10124;53.068;18.224;2023-02-04T12:35:23;15.23;;;6.63;;
19923;SDS011;10124;53.068;18.224;2023-02-04T12:37:51;13.33;;;6.27;;
19923;SDS011;10124;53.068;18.224;2023-02-04T12:40:20;13.30;;;5.80;;
19923;SDS011;10124;53.068;18.224;2023-02-04T12:42:48;15.10;;;8.43;;
19923;SDS011;10124;53.068;18.224;2023-02-04T12:45:16;15.20;;;7.63;;
19923;SDS011;10124;53.068;18.224;2023-02-04T12:47:45;21.13;;;10.00;;
19923;SDS011;10124;53.068;18.224;2023-02-04T12:50:14;14.50;;;7.73;;
19923;SDS011;10124;53.068;18.224;2023-02-04T12:52:49;16.90;;;8.67;;
19923;SDS011;10124;53.068;18.224;2023-02-04T12:55:17;15.03;;;7.90;;
19923;SDS011;10124;53.068;18.224;2023-02-04T12:57:45;29.93;;;13.93;;
19923;SDS011;10124;53.068;18.224;2023-02-04T13:00:14;32.90;;;16.27;;
19923;SDS011;10124;53.068;18.224;2023-02-04T13:02:42;33.07;;;13.37;;
19923;SDS011;10124;53.068;18.224;2023-02-04T13:05:10;21.47;;;9.43;;
19923;SDS011;10124;53.068;18.224;2023-02-04T13:07:38;21.70;;;12.60;;
19923;SDS011;10124;53.068;18.224;2023-02-04T13:10:07;32.90;;;18.10;;
19923;SDS011;10124;53.068;18.224;2023-02-04T13:12:35;32.13;;;17.13;;
19923;SDS011;10124;53.068;18.224;2023-02-04T13:15:04;50.47;;;25.13;;
19923;SDS011;10124;53.068;18.224;2023-02-04T13:17:32;78.70;;;43.17;;
19923;SDS011;10124;53.068;18.224;2023-02-04T13:20:00;231.20;;;114.73;;
19923;SDS011;10124;53.068;18.224;2023-02-04T13:22:28;48.37;;;25.77;;
19923;SDS011;10124;53.068;18.224;2023-02-04T13:24:56;91.03;;;58.20;;
19923;SDS011;10124;53.068;18.224;2023-02-04T13:27:24;27.03;;;19.60;;
19923;SDS011;10124;53.068;18.224;2023-02-04T13:29:53;19.47;;;11.47;;
19923;SDS011;10124;53.068;18.224;2023-02-04T13:32:21;25.90;;;12.30;;
19923;SDS011;10124;53.068;18.224;2023-02-04T13:34:49;23.03;;;12.70;;
19923;SDS011;10124;53.068;18.224;2023-02-04T13:37:17;26.57;;;17.13;;
19923;SDS011;10124;53.068;18.224;2023-02-04T13:39:44;26.70;;;17.17;;
19923;SDS011;10124;53.068;18.224;2023-02-04T13:42:13;42.00;;;24.83;;
19923;SDS011;10124;53.068;18.224;2023-02-04T13:44:40;12.77;;;3.73;;
19923;SDS011;10124;53.068;18.224;2023-02-04T13:47:08;2.60;;;1.83;;
19923;SDS011;10124;53.068;18.224;2023-02-04T13:49:36;13.93;;;8.40;;
19923;SDS011;10124;53.068;18.224;2023-02-04T13:52:04;9.67;;;3.97;;
19923;SDS011;10124;53.068;18.224;2023-02-04T13:54:32;7.83;;;3.80;;
19923;SDS011;10124;53.068;18.224;2023-02-04T13:57:02;12.97;;;4.13;;
19923;SDS011;10124;53.068;18.224;2023-02-04T13:59:31;11.80;;;5.83;;
19923;SDS011;10124;53.068;18.224;2023-02-04T14:01:59;13.13;;;6.97;;
19923;SDS011;10124;53.068;18.224;2023-02-04T14:04:27;18.73;;;10.03;;
19923;SDS011;10124;53.068;18.224;2023-02-04T14:06:55;36.77;;;19.23;;
19923;SDS011;10124;53.068;18.224;2023-02-04T14:09:23;39.10;;;24.93;;
19923;SDS011;10124;53.068;18.224;2023-02-04T14:11:51;45.80;;;29.33;;
19923;SDS011;10124;53.068;18.224;2023-02-04T14:14:19;38.17;;;22.97;;
19923;SDS011;10124;53.068;18.224;2023-02-04T14:16:48;44.47;;;24.20;;
19923;SDS011;10124;53.068;18.224;2023-02-04T14:19:15;35.73;;;21.70;;
19923;SDS011;10124;53.068;18.224;2023-02-04T14:21:44;54.63;;;34.83;;
19923;SDS011;10124;53.068;18.224;2023-02-04T14:24:12;72.10;;;40.47;;
19923;SDS011;10124;53.068;18.224;2023-02-04T14:26:40;26.33;;;16.20;;
19923;SDS011;10124;53.068;18.224;2023-02-04T14:29:08;16.53;;;9.40;;
19923;SDS011;10124;53.068;18.224;2023-02-04T14:31:37;20.87;;;11.67;;
19923;SDS011;10124;53.068;18.224;2023-02-04T14:34:04;27.20;;;12.63;;
19923;SDS011;10124;53.068;18.224;2023-02-04T14:36:32;10.17;;;6.00;;
19923;SDS011;10124;53.068;18.224;2023-02-04T14:39:00;11.87;;;5.20;;
19923;SDS011;10124;53.068;18.224;2023-02-04T14:41:29;10.17;;;6.20;;
19923;SDS011;10124;53.068;18.224;2023-02-04T14:43:57;17.50;;;10.37;;
19923;SDS011;10124;53.068;18.224;2023-02-04T14:46:25;22.47;;;11.37;;
19923;SDS011;10124;53.068;18.224;2023-02-04T14:48:52;31.23;;;16.93;;
19923;SDS011;10124;53.068;18.224;2023-02-04T14:51:21;54.17;;;28.43;;
19923;SDS011;10124;53.068;18.224;2023-02-04T14:53:48;30.23;;;18.47;;
19923;SDS011;10124;53.068;18.224;2023-02-04T14:56:17;28.10;;;15.67;;
19923;SDS011;10124;53.068;18.224;2023-02-04T14:58:45;29.10;;;14.23;;
19923;SDS011;10124;53.068;18.224;2023-02-04T15:01:13;25.83;;;13.40;;
19923;SDS011;10124;53.068;18.224;2023-02-04T15:03:41;36.47;;;21.20;;
19923;SDS011;10124;53.068;18.224;2023-02-04T15:06:09;47.10;;;25.60;;
19923;SDS011;10124;53.068;18.224;2023-02-04T15:08:37;32.67;;;20.73;;
19923;SDS011;10124;53.068;18.224;2023-02-04T15:11:05;42.17;;;21.77;;
19923;SDS011;10124;53.068;18.224;2023-02-04T15:13:33;42.20;;;23.23;;
19923;SDS011;10124;53.068;18.224;2023-02-04T15:16:01;41.73;;;24.43;;
19923;SDS011;10124;53.068;18.224;2023-02-04T15:18:31;44.07;;;27.13;;
19923;SDS011;10124;53.068;18.224;2023-02-04T15:21:00;56.17;;;29.93;;
19923;SDS011;10124;53.068;18.224;2023-02-04T15:23:28;39.07;;;22.93;;
19923;SDS011;10124;53.068;18.224;2023-02-04T15:25:56;49.93;;;26.67;;
19923;SDS011;10124;53.068;18.224;2023-02-04T15:28:24;59.27;;;32.23;;
19923;SDS011;10124;53.068;18.224;2023-02-04T15:30:54;79.87;;;42.63;;
19923;SDS011;10124;53.068;18.224;2023-02-04T15:33:22;65.30;;;35.63;;
19923;SDS011;10124;53.068;18.224;2023-02-04T15:35:50;68.00;;;35.93;;
19923;SDS011;10124;53.068;18.224;2023-02-04T15:38:18;60.87;;;36.73;;
19923;SDS011;10124;53.068;18.224;2023-02-04T15:40:46;76.43;;;44.83;;
19923;SDS011;10124;53.068;18.224;2023-02-04T15:43:14;67.47;;;37.37;;
19923;SDS011;10124;53.068;18.224;2023-02-04T15:45:43;48.67;;;31.13;;
19923;SDS011;10124;53.068;18.224;2023-02-04T15:48:12;96.07;;;56.27;;
19923;SDS011;10124;53.068;18.224;2023-02-04T15:50:41;95.93;;;59.37;;
19923;SDS011;10124;53.068;18.224;2023-02-04T15:53:09;100.67;;;55.83;;
19923;SDS011;10124;53.068;18.224;2023-02-04T15:55:39;85.63;;;47.40;;
19923;SDS011;10124;53.068;18.224;2023-02-04T15:58:06;106.27;;;55.87;;
19923;SDS011;10124;53.068;18.224;2023-02-04T16:00:35;231.73;;;114.07;;
19923;SDS011;10124;53.068;18.224;2023-02-04T16:03:03;226.30;;;111.17;;
19923;SDS011;10124;53.068;18.224;2023-02-04T16:05:31;188.17;;;90.03;;
19923;SDS011;10124;53.068;18.224;2023-02-04T16:07:59;229.13;;;107.60;;
19923;SDS011;10124;53.068;18.224;2023-02-04T16:10:27;306.67;;;136.90;;
19923;SDS011;10124;53.068;18.224;2023-02-04T16:12:55;283.83;;;126.77;;
19923;SDS011;10124;53.068;18.224;2023-02-04T16:15:24;332.20;;;135.67;;
19923;SDS011;10124;53.068;18.224;2023-02-04T16:17:53;316.73;;;138.30;;
19923;SDS011;10124;53.068;18.224;2023-02-04T16:20:23;210.43;;;98.17;;
19923;SDS011;10124;53.068;18.224;2023-02-04T16:22:51;315.90;;;134.17;;
19923;SDS011;10124;53.068;18.224;2023-02-04T16:25:19;246.83;;;112.13;;
19923;SDS011;10124;53.068;18.224;2023-02-04T16:27:48;236.70;;;105.57;;
19923;SDS011;10124;53.068;18.224;2023-02-04T16:30:17;226.00;;;100.03;;
19923;SDS011;10124;53.068;18.224;2023-02-04T16:32:45;252.27;;;109.20;;
19923;SDS011;10124;53.068;18.224;2023-02-04T16:35:13;366.07;;;147.33;;
19923;SDS011;10124;53.068;18.224;2023-02-04T16:37:42;447.90;;;179.23;;
19923;SDS011;10124;53.068;18.224;2023-02-04T16:40:10;471.27;;;185.40;;
19923;SDS011;10124;53.068;18.224;2023-02-04T16:42:39;292.37;;;110.83;;
19923;SDS011;10124;53.068;18.224;2023-02-04T16:45:07;254.40;;;100.80;;
19923;SDS011;10124;53.068;18.224;2023-02-04T16:47:36;198.73;;;84.57;;
19923;SDS011;10124;53.068;18.224;2023-02-04T16:50:04;188.13;;;86.37;;
19923;SDS011;10124;53.068;18.224;2023-02-04T16:52:32;145.00;;;66.23;;
19923;SDS011;10124;53.068;18.224;2023-02-04T16:55:01;106.70;;;49.37;;
19923;SDS011;10124;53.068;18.224;2023-02-04T16:57:29;129.90;;;53.90;;
19923;SDS011;10124;53.068;18.224;2023-02-04T16:59:57;177.17;;;70.07;;
19923;SDS011;10124;53.068;18.224;2023-02-04T17:02:26;114.60;;;51.40;;
19923;SDS011;10124;53.068;18.224;2023-02-04T17:05:00;85.00;;;40.53;;
19923;SDS011;10124;53.068;18.224;2023-02-04T17:07:28;57.87;;;30.10;;
19923;SDS011;10124;53.068;18.224;2023-02-04T17:09:56;51.03;;;29.20;;
19923;SDS011;10124;53.068;18.224;2023-02-04T17:12:24;51.03;;;25.83;;
19923;SDS011;10124;53.068;18.224;2023-02-04T17:14:52;39.67;;;20.10;;
19923;SDS011;10124;53.068;18.224;2023-02-04T17:17:21;61.97;;;33.43;;
19923;SDS011;10124;53.068;18.224;2023-02-04T17:19:49;60.60;;;29.90;;
19923;SDS011;10124;53.068;18.224;2023-02-04T17:22:17;53.57;;;29.60;;
19923;SDS011;10124;53.068;18.224;2023-02-04T17:24:44;83.20;;;38.07;;
19923;SDS011;10124;53.068;18.224;2023-02-04T17:27:12;91.80;;;42.33;;
19923;SDS011;10124;53.068;18.224;2023-02-04T17:29:40;87.97;;;44.10;;
19923;SDS011;10124;53.068;18.224;2023-02-04T17:32:08;83.63;;;40.50;;
19923;SDS011;10124;53.068;18.224;2023-02-04T17:34:38;67.60;;;32.00;;
19923;SDS011;10124;53.068;18.224;2023-02-04T17:37:06;66.90;;;34.03;;
19923;SDS011;10124;53.068;18.224;2023-02-04T17:39:34;79.53;;;36.13;;
19923;SDS011;10124;53.068;18.224;2023-02-04T17:42:02;70.90;;;34.73;;
19923;SDS011;10124;53.068;18.224;2023-02-04T17:44:30;96.70;;;49.63;;
19923;SDS011;10124;53.068;18.224;2023-02-04T17:47:02;61.23;;;30.50;;
19923;SDS011;10124;53.068;18.224;2023-02-04T17:49:46;70.40;;;33.03;;
19923;SDS011;10124;53.068;18.224;2023-02-04T17:52:15;45.50;;;21.93;;
19923;SDS011;10124;53.068;18.224;2023-02-04T17:54:43;60.27;;;25.60;;
19923;SDS011;10124;53.068;18.224;2023-02-04T17:57:18;42.87;;;20.53;;
19923;SDS011;10124;53.068;18.224;2023-02-04T17:59:47;45.40;;;23.47;;
19923;SDS011;10124;53.068;18.224;2023-02-04T18:04:44;32.13;;;18.93;;
19923;SDS011;10124;53.068;18.224;2023-02-04T18:07:13;31.00;;;18.37;;
19923;SDS011;10124;53.068;18.224;2023-02-04T18:09:40;32.80;;;18.13;;
19923;SDS011;10124;53.068;18.224;2023-02-04T18:12:16;33.17;;;17.47;;
19923;SDS011;10124;53.068;18.224;2023-02-04T18:14:45;29.10;;;16.27;;
19923;SDS011;10124;53.068;18.224;2023-02-04T18:17:13;29.47;;;15.30;;
19923;SDS011;10124;53.068;18.224;2023-02-04T18:19:42;40.17;;;18.80;;
19923;SDS011;10124;53.068;18.224;2023-02-04T18:22:12;47.87;;;25.20;;
19923;SDS011;10124;53.068;18.224;2023-02-04T18:24:41;42.13;;;22.67;;
19923;SDS011;10124;53.068;18.224;2023-02-04T18:27:13;44.73;;;24.77;;
19923;SDS011;10124;53.068;18.224;2023-02-04T18:29:44;60.30;;;34.37;;
19923;SDS011;10124;53.068;18.224;2023-02-04T18:32:16;37.73;;;23.77;;
19923;SDS011;10124;53.068;18.224;2023-02-04T18:34:46;42.83;;;25.03;;
19923;SDS011;10124;53.068;18.224;2023-02-04T18:37:33;42.90;;;25.23;;
19923;SDS011;10124;53.068;18.224;2023-02-04T18:42:35;46.63;;;26.97;;
19923;SDS011;10124;53.068;18.224;2023-02-04T18:47:57;49.43;;;27.37;;
19923;SDS011;10124;53.068;18.224;2023-02-04T18:50:33;55.07;;;28.43;;
19923;SDS011;10124;53.068;18.224;2023-02-04T18:55:38;46.57;;;28.50;;
19923;SDS011;10124;53.068;18.224;2023-02-04T19:08:46;45.27;;;24.73;;
19923;SDS011;10124;53.068;18.224;2023-02-04T19:11:35;32.87;;;17.83;;
19923;SDS011;10124;53.068;18.224;2023-02-04T19:14:17;39.43;;;22.37;;
19923;SDS011;10124;53.068;18.224;2023-02-04T19:16:48;37.83;;;22.20;;
19923;SDS011;10124;53.068;18.224;2023-02-04T19:19:29;42.23;;;21.93;;
19923;SDS011;10124;53.068;18.224;2023-02-04T19:22:51;51.13;;;25.67;;
19923;SDS011;10124;53.068;18.224;2023-02-04T19:27:58;72.07;;;36.47;;
19923;SDS011;10124;53.068;18.224;2023-02-04T19:32:56;67.60;;;34.50;;
19923;SDS011;10124;53.068;18.224;2023-02-04T19:35:31;66.07;;;31.10;;
19923;SDS011;10124;53.068;18.224;2023-02-04T19:40:52;62.33;;;32.23;;
19923;SDS011;10124;53.068;18.224;2023-02-04T19:43:21;60.20;;;30.80;;
19923;SDS011;10124;53.068;18.224;2023-02-04T19:45:58;61.97;;;29.60;;
19923;SDS011;10124;53.068;18.224;2023-02-04T19:48:34;73.77;;;34.97;;
19923;SDS011;10124;53.068;18.224;2023-02-04T19:53:50;57.90;;;26.77;;
19923;SDS011;10124;53.068;18.224;2023-02-04T19:58:55;55.23;;;27.03;;
19923;SDS011;10124;53.068;18.224;2023-02-04T20:01:24;54.30;;;25.97;;
19923;SDS011;10124;53.068;18.224;2023-02-04T20:03:52;43.53;;;21.63;;
19923;SDS011;10124;53.068;18.224;2023-02-04T20:06:24;44.33;;;23.10;;
19923;SDS011;10124;53.068;18.224;2023-02-04T20:08:59;36.27;;;17.30;;
19923;SDS011;10124;53.068;18.224;2023-02-04T20:14:21;25.00;;;12.73;;
19923;SDS011;10124;53.068;18.224;2023-02-04T20:16:52;19.37;;;11.43;;
19923;SDS011;10124;53.068;18.224;2023-02-04T20:24:47;19.57;;;10.80;;
19923;SDS011;10124;53.068;18.224;2023-02-04T20:27:25;17.63;;;9.07;;
19923;SDS011;10124;53.068;18.224;2023-02-04T20:29:58;22.07;;;12.00;;
19923;SDS011;10124;53.068;18.224;2023-02-04T20:32:46;23.03;;;12.03;;
19923;SDS011;10124;53.068;18.224;2023-02-04T20:37:48;20.07;;;10.90;;
19923;SDS011;10124;53.068;18.224;2023-02-04T20:43:10;31.43;;;23.10;;
19923;SDS011;10124;53.068;18.224;2023-02-04T20:48:31;19.53;;;12.90;;
19923;SDS011;10124;53.068;18.224;2023-02-04T20:51:01;33.07;;;23.53;;
19923;SDS011;10124;53.068;18.224;2023-02-04T20:53:40;46.97;;;24.23;;
19923;SDS011;10124;53.068;18.224;2023-02-04T20:58:47;19.83;;;13.17;;
19923;SDS011;10124;53.068;18.224;2023-02-04T21:01:17;22.00;;;14.27;;
19923;SDS011;10124;53.068;18.224;2023-02-04T21:03:46;33.33;;;18.30;;
19923;SDS011;10124;53.068;18.224;2023-02-04T21:06:21;29.40;;;15.47;;
19923;SDS011;10124;53.068;18.224;2023-02-04T21:08:50;30.37;;;15.97;;
19923;SDS011;10124;53.068;18.224;2023-02-04T21:11:18;26.27;;;16.20;;
19923;SDS011;10124;53.068;18.224;2023-02-04T21:13:48;23.77;;;14.43;;
19923;SDS011;10124;53.068;18.224;2023-02-04T21:16:17;24.23;;;13.47;;
19923;SDS011;10124;53.068;18.224;2023-02-04T21:18:45;22.77;;;15.27;;
19923;SDS011;10124;53.068;18.224;2023-02-04T21:21:13;21.10;;;13.37;;
19923;SDS011;10124;53.068;18.224;2023-02-04T21:23:41;14.80;;;10.03;;
19923;SDS011;10124;53.068;18.224;2023-02-04T21:26:10;18.70;;;11.37;;
19923;SDS011;10124;53.068;18.224;2023-02-04T21:28:37;20.90;;;14.33;;
19923;SDS011;10124;53.068;18.224;2023-02-04T21:31:05;21.77;;;13.90;;
19923;SDS011;10124;53.068;18.224;2023-02-04T21:33:34;21.30;;;13.07;;
19923;SDS011;10124;53.068;18.224;2023-02-04T21:36:02;23.43;;;18.03;;
19923;SDS011;10124;53.068;18.224;2023-02-04T21:38:30;21.07;;;16.10;;
19923;SDS011;10124;53.068;18.224;2023-02-04T21:40:58;22.63;;;14.03;;
19923;SDS011;10124;53.068;18.224;2023-02-04T21:43:28;17.00;;;12.63;;
19923;SDS011;10124;53.068;18.224;2023-02-04T21:45:56;21.10;;;13.27;;
19923;SDS011;10124;53.068;18.224;2023-02-04T21:48:25;17.77;;;11.97;;
19923;SDS011;10124;53.068;18.224;2023-02-04T21:50:52;21.13;;;13.40;;
19923;SDS011;10124;53.068;18.224;2023-02-04T21:53:20;24.67;;;15.50;;
19923;SDS011;10124;53.068;18.224;2023-02-04T21:55:48;22.13;;;13.20;;
19923;SDS011;10124;53.068;18.224;2023-02-04T21:58:16;24.73;;;13.60;;
19923;SDS011;10124;53.068;18.224;2023-02-04T22:00:43;23.00;;;13.67;;
19923;SDS011;10124;53.068;18.224;2023-02-04T22:03:11;20.43;;;12.70;;
19923;SDS011;10124;53.068;18.224;2023-02-04T22:05:43;24.57;;;16.47;;
19923;SDS011;10124;53.068;18.224;2023-02-04T22:08:11;31.20;;;17.83;;
19923;SDS011;10124;53.068;18.224;2023-02-04T22:10:38;30.13;;;20.23;;
19923;SDS011;10124;53.068;18.224;2023-02-04T22:13:07;26.33;;;17.67;;
19923;SDS011;10124;53.068;18.224;2023-02-04T22:15:53;31.30;;;18.10;;
19923;SDS011;10124;53.068;18.224;2023-02-04T22:18:21;32.60;;;18.37;;
19923;SDS011;10124;53.068;18.224;2023-02-04T22:20:49;26.40;;;14.70;;
19923;SDS011;10124;53.068;18.224;2023-02-04T22:23:17;22.43;;;13.60;;
19923;SDS011;10124;53.068;18.224;2023-02-04T22:25:45;25.27;;;12.63;;
19923;SDS011;10124;53.068;18.224;2023-02-04T22:28:13;25.87;;;15.17;;
19923;SDS011;10124;53.068;18.224;2023-02-04T22:30:41;24.23;;;13.40;;
19923;SDS011;10124;53.068;18.224;2023-02-04T22:33:09;28.90;;;15.53;;
19923;SDS011;10124;53.068;18.224;2023-02-04T22:35:39;26.40;;;15.73;;
19923;SDS011;10124;53.068;18.224;2023-02-04T22:38:07;33.97;;;21.60;;
19923;SDS011;10124;53.068;18.224;2023-02-04T22:40:35;36.57;;;21.17;;
19923;SDS011;10124;53.068;18.224;2023-02-04T22:43:04;33.07;;;20.90;;
19923;SDS011;10124;53.068;18.224;2023-02-04T22:45:32;40.07;;;23.47;;
19923;SDS011;10124;53.068;18.224;2023-02-04T22:48:01;36.47;;;21.70;;
19923;SDS011;10124;53.068;18.224;2023-02-04T22:50:28;37.23;;;22.80;;
19923;SDS011;10124;53.068;18.224;2023-02-04T22:52:56;42.63;;;25.00;;
19923;SDS011;10124;53.068;18.224;2023-02-04T22:55:24;40.10;;;25.30;;
19923;SDS011;10124;53.068;18.224;2023-02-04T22:57:52;40.70;;;24.00;;
19923;SDS011;10124;53.068;18.224;2023-02-04T23:00:20;37.87;;;23.50;;
19923;SDS011;10124;53.068;18.224;2023-02-04T23:02:48;38.80;;;24.83;;
19923;SDS011;10124;53.068;18.224;2023-02-04T23:05:16;36.67;;;22.33;;
19923;SDS011;10124;53.068;18.224;2023-02-04T23:07:44;41.70;;;25.30;;
19923;SDS011;10124;53.068;18.224;2023-02-04T23:10:12;29.37;;;19.60;;
19923;SDS011;10124;53.068;18.224;2023-02-04T23:12:41;30.27;;;18.63;;
19923;SDS011;10124;53.068;18.224;2023-02-04T23:15:10;36.07;;;22.47;;
19923;SDS011;10124;53.068;18.224;2023-02-04T23:17:38;47.50;;;31.20;;
19923;SDS011;10124;53.068;18.224;2023-02-04T23:20:06;62.80;;;37.13;;
19923;SDS011;10124;53.068;18.224;2023-02-04T23:22:34;74.33;;;40.63;;
19923;SDS011;10124;53.068;18.224;2023-02-04T23:25:02;74.00;;;40.83;;
19923;SDS011;10124;53.068;18.224;2023-02-04T23:27:33;79.07;;;42.47;;
19923;SDS011;10124;53.068;18.224;2023-02-04T23:30:01;95.03;;;49.47;;
19923;SDS011;10124;53.068;18.224;2023-02-04T23:32:31;96.07;;;49.53;;
19923;SDS011;10124;53.068;18.224;2023-02-04T23:34:59;119.10;;;56.83;;
19923;SDS011;10124;53.068;18.224;2023-02-04T23:37:27;149.83;;;69.77;;
19923;SDS011;10124;53.068;18.224;2023-02-04T23:39:55;124.53;;;61.43;;
19923;SDS011;10124;53.068;18.224;2023-02-04T23:42:23;146.37;;;78.27;;
19923;SDS011;10124;53.068;18.224;2023-02-04T23:44:51;143.57;;;73.97;;
19923;SDS011;10124;53.068;18.224;2023-02-04T23:47:19;131.03;;;66.47;;
19923;SDS011;10124;53.068;18.224;2023-02-04T23:49:47;117.50;;;59.67;;
19923;SDS011;10124;53.068;18.224;2023-02-04T23:52:15;107.80;;;52.17;;
19923;SDS011;10124;53.068;18.224;2023-02-04T23:54:43;120.30;;;63.37;;
19923;SDS011;10124;53.068;18.224;2023-02-04T23:57:11;116.40;;;60.07;;
19923;SDS011;10124;53.068;18.224;2023-02-04T23:59:39;100.70;;;55.90;;
